Terminal Aerodrome Forecast
Issued by NWS

Home | Current Version | Previous Version | Text Only | Print | Product List | Glossary On
Versions: 1 2 3 4 5 6 7 8 9 10 11 12 13 14 15 16 17
000
FTUS46 KPDT 011100
TAFDLS
TAF
KDLS 011131Z 0112/0212 VRB03KT P6SM OVC025
      TEMPO 0112/0115 5SM BR OVC012
     FM011500 09004KT P6SM OVC015
     FM011800 VRB03KT P6SM VCSH OVC020
     FM012000 31005KT P6SM -RA SCT020 OVC030
     FM020600 31005KT P6SM BKN030=

USA.gov is the U.S. government's official web portal to all federal, state and local government web resources and services.